Terminal Aerodrome Forecast
Issued by NWS

Home | Current Version | Previous Version | Text Only | Print | Product List | Glossary On
Versions: 1 2 3 4 5 6 7 8 9 10 11 12 13
000
FTUS44 KCRP 240535
TAFLRD
TAF
KLRD 240535Z 2406/2506 09007KT P6SM SCT050
      TEMPO 2409/2412 SCT006 BKN050
     FM241200 01012KT P6SM SCT050
     FM241500 04018G25KT P6SM SCT060
     FM242200 01012KT P6SM SCT100
     FM250400 36002KT P6SM SKC=

USA.gov is the U.S. government's official web portal to all federal, state and local government web resources and services.